sensor_id;sensor_type;location;lat;lon;timestamp;pressure;altitude;pressure_sealevel;temperature;humidity
25944;BME280;13742;49.306;8.636;2023-08-24T00:00:28;100580.61;;;24.27;55.94
25944;BME280;13742;49.306;8.636;2023-08-24T00:01:28;100578.44;;;24.24;56.02
25944;BME280;13742;49.306;8.636;2023-08-24T00:02:28;100579.88;;;24.25;55.95
25944;BME280;13742;49.306;8.636;2023-08-24T00:03:28;100580.17;;;24.23;56.12
25944;BME280;13742;49.306;8.636;2023-08-24T00:04:28;100575.93;;;24.21;56.31
25944;BME280;13742;49.306;8.636;2023-08-24T00:05:28;100573.73;;;24.21;56.06
25944;BME280;13742;49.306;8.636;2023-08-24T00:06:28;100574.14;;;24.21;55.95
25944;BME280;13742;49.306;8.636;2023-08-24T00:07:28;100573.97;;;24.22;55.69
25944;BME280;13742;49.306;8.636;2023-08-24T00:08:28;100569.08;;;24.21;55.80
25944;BME280;13742;49.306;8.636;2023-08-24T00:09:28;100567.98;;;24.22;55.86
25944;BME280;13742;49.306;8.636;2023-08-24T00:10:28;100565.10;;;24.20;55.96
25944;BME280;13742;49.306;8.636;2023-08-24T00:11:28;100563.25;;;24.19;56.12
25944;BME280;13742;49.306;8.636;2023-08-24T00:12:28;100559.19;;;24.20;55.91
25944;BME280;13742;49.306;8.636;2023-08-24T00:13:28;100560.44;;;24.21;55.62
25944;BME280;13742;49.306;8.636;2023-08-24T00:14:28;100563.03;;;24.22;55.43
25944;BME280;13742;49.306;8.636;2023-08-24T00:15:28;100554.97;;;24.21;55.82
25944;BME280;13742;49.306;8.636;2023-08-24T00:16:28;100556.34;;;24.21;55.72
25944;BME280;13742;49.306;8.636;2023-08-24T00:17:28;100556.16;;;24.20;55.77
25944;BME280;13742;49.306;8.636;2023-08-24T00:18:28;100551.20;;;24.18;55.33
25944;BME280;13742;49.306;8.636;2023-08-24T00:19:28;100550.53;;;24.18;55.78
25944;BME280;13742;49.306;8.636;2023-08-24T00:20:28;100549.61;;;24.20;55.43
25944;BME280;13742;49.306;8.636;2023-08-24T00:21:28;100549.19;;;24.17;55.54
25944;BME280;13742;49.306;8.636;2023-08-24T00:22:28;100550.70;;;24.18;55.27
25944;BME280;13742;49.306;8.636;2023-08-24T00:23:28;100546.45;;;24.17;55.27
25944;BME280;13742;49.306;8.636;2023-08-24T00:24:29;100546.33;;;24.17;55.14
25944;BME280;13742;49.306;8.636;2023-08-24T00:25:28;100545.85;;;24.17;55.05
25944;BME280;13742;49.306;8.636;2023-08-24T00:26:28;100543.95;;;24.19;55.26
25944;BME280;13742;49.306;8.636;2023-08-24T00:27:28;100541.70;;;24.17;55.17
25944;BME280;13742;49.306;8.636;2023-08-24T00:28:28;100542.78;;;24.17;55.24
25944;BME280;13742;49.306;8.636;2023-08-24T00:29:28;100540.88;;;24.18;55.30
25944;BME280;13742;49.306;8.636;2023-08-24T00:30:28;100535.52;;;24.19;55.21
25944;BME280;13742;49.306;8.636;2023-08-24T00:31:28;100533.44;;;24.21;54.96
25944;BME280;13742;49.306;8.636;2023-08-24T00:32:28;100530.45;;;24.18;55.00
25944;BME280;13742;49.306;8.636;2023-08-24T00:33:28;100529.27;;;24.19;55.13
25944;BME280;13742;49.306;8.636;2023-08-24T00:34:28;100531.05;;;24.19;54.98
25944;BME280;13742;49.306;8.636;2023-08-24T00:35:28;100532.16;;;24.20;55.12
25944;BME280;13742;49.306;8.636;2023-08-24T00:36:28;100533.06;;;24.21;55.08
25944;BME280;13742;49.306;8.636;2023-08-24T00:37:31;100535.52;;;24.22;55.09
25944;BME280;13742;49.306;8.636;2023-08-24T00:38:28;100537.71;;;24.22;55.16
25944;BME280;13742;49.306;8.636;2023-08-24T00:39:28;100539.77;;;24.23;55.07
25944;BME280;13742;49.306;8.636;2023-08-24T00:40:28;100538.22;;;24.23;55.04
25944;BME280;13742;49.306;8.636;2023-08-24T00:41:28;100535.45;;;24.23;54.96
25944;BME280;13742;49.306;8.636;2023-08-24T00:42:28;100538.95;;;24.24;54.85
25944;BME280;13742;49.306;8.636;2023-08-24T00:43:28;100537.30;;;24.23;54.97
25944;BME280;13742;49.306;8.636;2023-08-24T00:44:28;100539.16;;;24.23;55.04
25944;BME280;13742;49.306;8.636;2023-08-24T00:45:28;100538.95;;;24.24;54.90
25944;BME280;13742;49.306;8.636;2023-08-24T00:46:28;100534.63;;;24.24;54.84
25944;BME280;13742;49.306;8.636;2023-08-24T00:47:29;100537.88;;;24.26;55.11
25944;BME280;13742;49.306;8.636;2023-08-24T00:48:28;100534.41;;;24.26;55.43
25944;BME280;13742;49.306;8.636;2023-08-24T00:49:28;100535.11;;;24.27;55.28
25944;BME280;13742;49.306;8.636;2023-08-24T00:50:28;100539.20;;;24.25;54.99
25944;BME280;13742;49.306;8.636;2023-08-24T00:51:28;100538.80;;;24.26;54.89
25944;BME280;13742;49.306;8.636;2023-08-24T00:52:28;100544.63;;;24.26;55.03
25944;BME280;13742;49.306;8.636;2023-08-24T00:53:28;100545.61;;;24.27;55.09
25944;BME280;13742;49.306;8.636;2023-08-24T00:54:28;100550.91;;;24.27;54.96
25944;BME280;13742;49.306;8.636;2023-08-24T00:55:28;100549.66;;;24.28;54.96
25944;BME280;13742;49.306;8.636;2023-08-24T00:56:29;100555.55;;;24.24;55.17
25944;BME280;13742;49.306;8.636;2023-08-24T00:57:28;100558.55;;;24.26;54.84
25944;BME280;13742;49.306;8.636;2023-08-24T00:58:28;100560.58;;;24.25;55.16
25944;BME280;13742;49.306;8.636;2023-08-24T00:59:28;100560.13;;;24.21;55.35
25944;BME280;13742;49.306;8.636;2023-08-24T01:00:28;100561.39;;;24.20;55.05
25944;BME280;13742;49.306;8.636;2023-08-24T01:01:28;100561.89;;;24.20;54.98
25944;BME280;13742;49.306;8.636;2023-08-24T01:02:28;100561.50;;;24.18;55.16
25944;BME280;13742;49.306;8.636;2023-08-24T01:03:28;100564.68;;;24.17;55.21
25944;BME280;13742;49.306;8.636;2023-08-24T01:04:28;100565.02;;;24.18;55.15
25944;BME280;13742;49.306;8.636;2023-08-24T01:05:28;100564.85;;;24.17;55.15
25944;BME280;13742;49.306;8.636;2023-08-24T01:06:28;100568.56;;;24.18;55.09
25944;BME280;13742;49.306;8.636;2023-08-24T01:07:28;100568.48;;;24.19;55.31
25944;BME280;13742;49.306;8.636;2023-08-24T01:08:28;100569.00;;;24.18;55.10
25944;BME280;13742;49.306;8.636;2023-08-24T01:09:28;100567.76;;;24.17;55.13
25944;BME280;13742;49.306;8.636;2023-08-24T01:10:30;100568.03;;;24.16;55.46
25944;BME280;13742;49.306;8.636;2023-08-24T01:12:32;100569.92;;;24.15;55.32
25944;BME280;13742;49.306;8.636;2023-08-24T01:16:28;100559.27;;;24.14;55.06
25944;BME280;13742;49.306;8.636;2023-08-24T01:17:29;100555.96;;;24.14;55.18
25944;BME280;13742;49.306;8.636;2023-08-24T01:18:28;100551.64;;;24.14;55.25
25944;BME280;13742;49.306;8.636;2023-08-24T01:20:28;100552.88;;;24.16;55.17
25944;BME280;13742;49.306;8.636;2023-08-24T01:21:28;100552.57;;;24.16;55.29
25944;BME280;13742;49.306;8.636;2023-08-24T01:22:37;100554.89;;;24.17;55.39
25944;BME280;13742;49.306;8.636;2023-08-24T01:24:35;100560.48;;;24.19;55.27
25944;BME280;13742;49.306;8.636;2023-08-24T01:25:33;100562.24;;;24.19;55.12
25944;BME280;13742;49.306;8.636;2023-08-24T01:26:28;100563.77;;;24.18;55.27
25944;BME280;13742;49.306;8.636;2023-08-24T01:27:28;100560.30;;;24.18;55.19
25944;BME280;13742;49.306;8.636;2023-08-24T01:28:28;100556.67;;;24.19;54.95
25944;BME280;13742;49.306;8.636;2023-08-24T01:29:28;100554.95;;;24.19;55.04
25944;BME280;13742;49.306;8.636;2023-08-24T01:30:28;100552.81;;;24.20;54.86
25944;BME280;13742;49.306;8.636;2023-08-24T01:31:28;100554.13;;;24.21;55.16
25944;BME280;13742;49.306;8.636;2023-08-24T01:32:29;100557.06;;;24.21;55.32
25944;BME280;13742;49.306;8.636;2023-08-24T01:33:28;100553.48;;;24.21;55.05
25944;BME280;13742;49.306;8.636;2023-08-24T01:34:28;100559.02;;;24.20;54.97
25944;BME280;13742;49.306;8.636;2023-08-24T01:35:28;100559.16;;;24.20;55.14
25944;BME280;13742;49.306;8.636;2023-08-24T01:36:28;100558.71;;;24.21;55.35
25944;BME280;13742;49.306;8.636;2023-08-24T01:37:28;100555.11;;;24.20;54.91
25944;BME280;13742;49.306;8.636;2023-08-24T01:38:28;100558.30;;;24.19;55.33
25944;BME280;13742;49.306;8.636;2023-08-24T01:39:30;100561.48;;;24.16;55.23
25944;BME280;13742;49.306;8.636;2023-08-24T01:40:35;100562.38;;;24.13;55.38
25944;BME280;13742;49.306;8.636;2023-08-24T01:41:30;100566.77;;;24.14;55.14
25944;BME280;13742;49.306;8.636;2023-08-24T01:42:28;100565.27;;;24.11;55.36
25944;BME280;13742;49.306;8.636;2023-08-24T01:43:29;100564.45;;;24.12;55.33
25944;BME280;13742;49.306;8.636;2023-08-24T01:44:28;100565.33;;;24.11;55.27
25944;BME280;13742;49.306;8.636;2023-08-24T01:45:29;100567.66;;;24.12;55.48
25944;BME280;13742;49.306;8.636;2023-08-24T01:46:28;100563.03;;;24.12;55.46
25944;BME280;13742;49.306;8.636;2023-08-24T01:47:28;100564.47;;;24.13;55.44
25944;BME280;13742;49.306;8.636;2023-08-24T01:48:29;100567.27;;;24.14;55.47
25944;BME280;13742;49.306;8.636;2023-08-24T01:49:28;100560.73;;;24.12;55.63
25944;BME280;13742;49.306;8.636;2023-08-24T01:50:28;100563.13;;;24.13;55.27
25944;BME280;13742;49.306;8.636;2023-08-24T01:51:28;100556.55;;;24.13;55.57
25944;BME280;13742;49.306;8.636;2023-08-24T01:52:28;100559.45;;;24.12;55.71
25944;BME280;13742;49.306;8.636;2023-08-24T01:53:29;100557.06;;;24.11;55.99
25944;BME280;13742;49.306;8.636;2023-08-24T01:54:28;100558.89;;;24.09;55.92
25944;BME280;13742;49.306;8.636;2023-08-24T01:55:28;100557.34;;;24.08;56.08
25944;BME280;13742;49.306;8.636;2023-08-24T01:56:28;100557.08;;;24.08;56.16
25944;BME280;13742;49.306;8.636;2023-08-24T01:57:28;100557.25;;;24.08;56.07
25944;BME280;13742;49.306;8.636;2023-08-24T01:58:28;100552.67;;;24.07;56.36
25944;BME280;13742;49.306;8.636;2023-08-24T01:59:28;100556.25;;;24.06;56.36
25944;BME280;13742;49.306;8.636;2023-08-24T02:00:30;100550.59;;;24.05;56.29
25944;BME280;13742;49.306;8.636;2023-08-24T02:01:28;100553.23;;;24.03;57.17
25944;BME280;13742;49.306;8.636;2023-08-24T02:02:28;100553.56;;;23.99;57.52
25944;BME280;13742;49.306;8.636;2023-08-24T02:03:28;100558.64;;;23.96;57.27
25944;BME280;13742;49.306;8.636;2023-08-24T02:04:28;100560.61;;;23.95;57.25
25944;BME280;13742;49.306;8.636;2023-08-24T02:05:29;100561.33;;;23.93;57.21
25944;BME280;13742;49.306;8.636;2023-08-24T02:06:28;100560.80;;;23.86;58.51
25944;BME280;13742;49.306;8.636;2023-08-24T02:07:28;100564.55;;;23.85;57.80
25944;BME280;13742;49.306;8.636;2023-08-24T02:08:28;100563.91;;;23.69;58.78
25944;BME280;13742;49.306;8.636;2023-08-24T02:09:28;100565.20;;;23.70;58.00
25944;BME280;13742;49.306;8.636;2023-08-24T02:10:28;100563.70;;;23.71;58.33
25944;BME280;13742;49.306;8.636;2023-08-24T02:11:28;100563.00;;;23.69;58.10
25944;BME280;13742;49.306;8.636;2023-08-24T02:12:28;100561.36;;;23.68;58.14
25944;BME280;13742;49.306;8.636;2023-08-24T02:13:28;100561.47;;;23.66;58.40
25944;BME280;13742;49.306;8.636;2023-08-24T02:14:28;100564.99;;;23.63;58.68
25944;BME280;13742;49.306;8.636;2023-08-24T02:15:28;100566.59;;;23.60;58.92
25944;BME280;13742;49.306;8.636;2023-08-24T02:16:28;100565.16;;;23.56;58.51
25944;BME280;13742;49.306;8.636;2023-08-24T02:17:28;100566.59;;;23.53;58.68
25944;BME280;13742;49.306;8.636;2023-08-24T02:18:28;100570.67;;;23.49;58.92
25944;BME280;13742;49.306;8.636;2023-08-24T02:19:28;100569.48;;;23.45;58.94
25944;BME280;13742;49.306;8.636;2023-08-24T02:20:28;100568.73;;;23.39;59.53
25944;BME280;13742;49.306;8.636;2023-08-24T02:21:28;100566.61;;;23.37;59.37
25944;BME280;13742;49.306;8.636;2023-08-24T02:22:28;100563.68;;;23.35;59.27
25944;BME280;13742;49.306;8.636;2023-08-24T02:23:28;100565.27;;;23.34;58.64
25944;BME280;13742;49.306;8.636;2023-08-24T02:24:28;100562.50;;;23.35;58.69
25944;BME280;13742;49.306;8.636;2023-08-24T02:25:28;100563.92;;;23.34;58.54
25944;BME280;13742;49.306;8.636;2023-08-24T02:26:28;100558.83;;;23.36;59.89
25944;BME280;13742;49.306;8.636;2023-08-24T02:27:28;100561.39;;;23.34;59.76
25944;BME280;13742;49.306;8.636;2023-08-24T02:28:28;100562.81;;;23.33;59.30
25944;BME280;13742;49.306;8.636;2023-08-24T02:29:28;100561.33;;;23.32;59.13
25944;BME280;13742;49.306;8.636;2023-08-24T02:30:28;100568.01;;;23.32;59.55
25944;BME280;13742;49.306;8.636;2023-08-24T02:31:28;100568.21;;;23.31;59.60
25944;BME280;13742;49.306;8.636;2023-08-24T02:32:28;100568.08;;;23.30;59.89
25944;BME280;13742;49.306;8.636;2023-08-24T02:33:28;100569.56;;;23.28;59.69
25944;BME280;13742;49.306;8.636;2023-08-24T02:34:28;100565.36;;;23.26;59.58
25944;BME280;13742;49.306;8.636;2023-08-24T02:35:28;100565.87;;;23.26;59.35
25944;BME280;13742;49.306;8.636;2023-08-24T02:36:28;100566.14;;;23.26;59.14
25944;BME280;13742;49.306;8.636;2023-08-24T02:37:28;100565.47;;;23.26;59.52
25944;BME280;13742;49.306;8.636;2023-08-24T02:38:28;100559.80;;;23.26;60.19
25944;BME280;13742;49.306;8.636;2023-08-24T02:39:28;100559.47;;;23.23;60.42
25944;BME280;13742;49.306;8.636;2023-08-24T02:40:28;100555.47;;;23.22;60.36
25944;BME280;13742;49.306;8.636;2023-08-24T02:41:28;100552.41;;;23.21;59.67
25944;BME280;13742;49.306;8.636;2023-08-24T02:42:30;100550.31;;;23.21;59.81
25944;BME280;13742;49.306;8.636;2023-08-24T02:43:28;100550.95;;;23.20;59.83
25944;BME280;13742;49.306;8.636;2023-08-24T02:44:28;100547.86;;;23.18;59.75
25944;BME280;13742;49.306;8.636;2023-08-24T02:45:28;100549.20;;;23.18;59.97
25944;BME280;13742;49.306;8.636;2023-08-24T02:46:28;100543.89;;;23.18;59.59
25944;BME280;13742;49.306;8.636;2023-08-24T02:47:28;100542.84;;;23.19;59.80
25944;BME280;13742;49.306;8.636;2023-08-24T02:48:28;100542.73;;;23.19;59.60
25944;BME280;13742;49.306;8.636;2023-08-24T02:49:28;100539.10;;;23.18;59.52
25944;BME280;13742;49.306;8.636;2023-08-24T02:50:28;100537.18;;;23.19;59.76
25944;BME280;13742;49.306;8.636;2023-08-24T02:51:28;100533.01;;;23.17;59.38
25944;BME280;13742;49.306;8.636;2023-08-24T02:52:28;100531.25;;;23.17;59.64
25944;BME280;13742;49.306;8.636;2023-08-24T02:53:28;100527.66;;;23.16;59.67
25944;BME280;13742;49.306;8.636;2023-08-24T02:54:28;100523.70;;;23.16;59.59
25944;BME280;13742;49.306;8.636;2023-08-24T02:55:28;100521.28;;;23.17;59.56
25944;BME280;13742;49.306;8.636;2023-08-24T02:56:28;100520.27;;;23.16;59.55
25944;BME280;13742;49.306;8.636;2023-08-24T02:57:28;100517.95;;;23.15;59.46
25944;BME280;13742;49.306;8.636;2023-08-24T02:58:28;100520.95;;;23.14;59.46
25944;BME280;13742;49.306;8.636;2023-08-24T02:59:28;100517.31;;;23.13;59.48
25944;BME280;13742;49.306;8.636;2023-08-24T03:00:28;100514.86;;;23.13;59.94
25944;BME280;13742;49.306;8.636;2023-08-24T03:01:28;100508.66;;;23.12;59.82
25944;BME280;13742;49.306;8.636;2023-08-24T03:02:28;100510.38;;;23.12;60.38
25944;BME280;13742;49.306;8.636;2023-08-24T03:03:28;100504.22;;;23.09;60.08
25944;BME280;13742;49.306;8.636;2023-08-24T03:04:28;100500.94;;;23.04;60.23
25944;BME280;13742;49.306;8.636;2023-08-24T03:05:28;100495.23;;;23.04;60.18
25944;BME280;13742;49.306;8.636;2023-08-24T03:06:28;100495.31;;;23.03;60.02
25944;BME280;13742;49.306;8.636;2023-08-24T03:07:28;100496.56;;;23.02;60.23
25944;BME280;13742;49.306;8.636;2023-08-24T03:08:28;100494.07;;;23.00;60.01
25944;BME280;13742;49.306;8.636;2023-08-24T03:09:28;100497.48;;;22.99;59.82
25944;BME280;13742;49.306;8.636;2023-08-24T03:10:28;100497.11;;;22.98;60.16
25944;BME280;13742;49.306;8.636;2023-08-24T03:11:28;100501.16;;;22.98;60.29
25944;BME280;13742;49.306;8.636;2023-08-24T03:12:28;100504.76;;;22.97;59.83
25944;BME280;13742;49.306;8.636;2023-08-24T03:13:28;100507.69;;;22.97;60.53
25944;BME280;13742;49.306;8.636;2023-08-24T03:14:28;100507.33;;;22.96;60.42
25944;BME280;13742;49.306;8.636;2023-08-24T03:15:28;100509.89;;;22.95;60.23
25944;BME280;13742;49.306;8.636;2023-08-24T03:16:28;100509.72;;;22.94;60.19
25944;BME280;13742;49.306;8.636;2023-08-24T03:17:28;100505.96;;;22.90;60.79
25944;BME280;13742;49.306;8.636;2023-08-24T03:18:28;100503.09;;;22.90;60.70
25944;BME280;13742;49.306;8.636;2023-08-24T03:19:28;100501.58;;;22.90;60.28
25944;BME280;13742;49.306;8.636;2023-08-24T03:20:28;100496.86;;;22.90;60.50
25944;BME280;13742;49.306;8.636;2023-08-24T03:21:28;100493.59;;;22.90;60.65
25944;BME280;13742;49.306;8.636;2023-08-24T03:22:28;100485.68;;;22.90;60.25
25944;BME280;13742;49.306;8.636;2023-08-24T03:23:28;100482.98;;;22.90;61.09
25944;BME280;13742;49.306;8.636;2023-08-24T03:24:28;100484.98;;;22.89;60.79
25944;BME280;13742;49.306;8.636;2023-08-24T03:25:28;100485.48;;;22.89;61.00
25944;BME280;13742;49.306;8.636;2023-08-24T03:26:28;100488.31;;;22.88;60.54
25944;BME280;13742;49.306;8.636;2023-08-24T03:27:28;100483.94;;;22.88;60.89
25944;BME280;13742;49.306;8.636;2023-08-24T03:28:28;100486.87;;;22.88;61.21
25944;BME280;13742;49.306;8.636;2023-08-24T03:29:28;100484.08;;;22.87;61.24
25944;BME280;13742;49.306;8.636;2023-08-24T03:30:28;100487.41;;;22.86;60.90
25944;BME280;13742;49.306;8.636;2023-08-24T03:31:29;100490.34;;;22.83;61.58
25944;BME280;13742;49.306;8.636;2023-08-24T03:32:28;100491.77;;;22.83;61.68
25944;BME280;13742;49.306;8.636;2023-08-24T03:33:28;100494.91;;;22.77;61.83
25944;BME280;13742;49.306;8.636;2023-08-24T03:34:29;100493.50;;;22.73;61.75
25944;BME280;13742;49.306;8.636;2023-08-24T03:35:28;100492.30;;;22.69;62.10
25944;BME280;13742;49.306;8.636;2023-08-24T03:36:28;100492.97;;;22.65;62.31
25944;BME280;13742;49.306;8.636;2023-08-24T03:37:28;100491.56;;;22.65;62.40
25944;BME280;13742;49.306;8.636;2023-08-24T03:38:28;100487.26;;;22.62;62.57
25944;BME280;13742;49.306;8.636;2023-08-24T03:39:28;100479.98;;;22.64;62.60
25944;BME280;13742;49.306;8.636;2023-08-24T03:40:28;100475.06;;;22.65;62.49
25944;BME280;13742;49.306;8.636;2023-08-24T03:41:28;100463.78;;;22.63;63.16
25944;BME280;13742;49.306;8.636;2023-08-24T03:42:28;100453.59;;;22.62;62.67
25944;BME280;13742;49.306;8.636;2023-08-24T03:43:30;100442.11;;;22.61;62.53
25944;BME280;13742;49.306;8.636;2023-08-24T03:44:28;100432.05;;;22.62;62.33
25944;BME280;13742;49.306;8.636;2023-08-24T03:45:28;100424.73;;;22.62;62.33
25944;BME280;13742;49.306;8.636;2023-08-24T03:46:28;100418.98;;;22.61;62.65
25944;BME280;13742;49.306;8.636;2023-08-24T03:47:28;100415.04;;;22.62;62.51
25944;BME280;13742;49.306;8.636;2023-08-24T03:48:28;100408.73;;;22.65;62.11
25944;BME280;13742;49.306;8.636;2023-08-24T03:49:28;100399.23;;;22.66;62.32
25944;BME280;13742;49.306;8.636;2023-08-24T03:50:28;100395.70;;;22.68;62.10
25944;BME280;13742;49.306;8.636;2023-08-24T03:51:28;100391.08;;;22.69;61.28
25944;BME280;13742;49.306;8.636;2023-08-24T03:52:28;100393.10;;;22.68;58.75
25944;BME280;13742;49.306;8.636;2023-08-24T03:53:28;100385.39;;;22.69;58.63
25944;BME280;13742;49.306;8.636;2023-08-24T03:54:28;100388.21;;;22.71;57.94
25944;BME280;13742;49.306;8.636;2023-08-24T03:55:28;100398.47;;;22.73;57.32
25944;BME280;13742;49.306;8.636;2023-08-24T03:56:28;100403.82;;;22.76;57.72
25944;BME280;13742;49.306;8.636;2023-08-24T03:57:28;100408.09;;;22.78;57.49
25944;BME280;13742;49.306;8.636;2023-08-24T03:58:28;100410.61;;;22.80;57.31
25944;BME280;13742;49.306;8.636;2023-08-24T03:59:28;100412.55;;;22.83;57.32
25944;BME280;13742;49.306;8.636;2023-08-24T04:00:28;100405.61;;;22.85;57.13
25944;BME280;13742;49.306;8.636;2023-08-24T04:01:28;100405.66;;;22.87;56.93
25944;BME280;13742;49.306;8.636;2023-08-24T04:02:28;100396.97;;;22.89;56.40
25944;BME280;13742;49.306;8.636;2023-08-24T04:03:28;100396.22;;;22.92;56.39
25944;BME280;13742;49.306;8.636;2023-08-24T04:04:28;100393.98;;;22.93;55.94
25944;BME280;13742;49.306;8.636;2023-08-24T04:05:28;100392.36;;;22.95;55.62
25944;BME280;13742;49.306;8.636;2023-08-24T04:06:28;100391.71;;;22.97;55.47
25944;BME280;13742;49.306;8.636;2023-08-24T04:07:28;100393.89;;;22.99;55.41
25944;BME280;13742;49.306;8.636;2023-08-24T04:08:28;100393.08;;;23.00;55.26
25944;BME280;13742;49.306;8.636;2023-08-24T04:09:28;100392.23;;;23.02;55.03
25944;BME280;13742;49.306;8.636;2023-08-24T04:10:31;100396.13;;;23.04;54.96
25944;BME280;13742;49.306;8.636;2023-08-24T04:11:28;100389.82;;;23.05;55.14
25944;BME280;13742;49.306;8.636;2023-08-24T04:12:28;100387.63;;;23.07;54.74
25944;BME280;13742;49.306;8.636;2023-08-24T04:13:28;100389.55;;;23.07;54.75
25944;BME280;13742;49.306;8.636;2023-08-24T04:14:28;100391.50;;;23.07;54.67
25944;BME280;13742;49.306;8.636;2023-08-24T04:15:28;100396.68;;;23.08;54.42
25944;BME280;13742;49.306;8.636;2023-08-24T04:16:28;100393.00;;;23.09;54.66
25944;BME280;13742;49.306;8.636;2023-08-24T04:17:28;100395.66;;;23.09;54.78
25944;BME280;13742;49.306;8.636;2023-08-24T04:18:28;100396.97;;;23.11;54.89
25944;BME280;13742;49.306;8.636;2023-08-24T04:19:28;100396.97;;;23.12;54.95
25944;BME280;13742;49.306;8.636;2023-08-24T04:20:28;100395.48;;;23.10;55.25
25944;BME280;13742;49.306;8.636;2023-08-24T04:21:28;100394.48;;;23.10;55.52
25944;BME280;13742;49.306;8.636;2023-08-24T04:22:28;100394.72;;;23.10;55.91
25944;BME280;13742;49.306;8.636;2023-08-24T04:23:28;100396.14;;;23.08;56.04
25944;BME280;13742;49.306;8.636;2023-08-24T04:24:28;100396.86;;;23.05;56.36
25944;BME280;13742;49.306;8.636;2023-08-24T04:25:29;100401.18;;;23.04;56.54
25944;BME280;13742;49.306;8.636;2023-08-24T04:26:28;100402.19;;;23.03;56.68
25944;BME280;13742;49.306;8.636;2023-08-24T04:27:28;100398.61;;;22.99;56.97
25944;BME280;13742;49.306;8.636;2023-08-24T04:28:28;100398.16;;;22.95;57.16
25944;BME280;13742;49.306;8.636;2023-08-24T04:29:28;100398.56;;;22.86;57.25
25944;BME280;13742;49.306;8.636;2023-08-24T04:30:28;100397.63;;;22.85;57.28
25944;BME280;13742;49.306;8.636;2023-08-24T04:31:28;100400.27;;;22.81;57.45
25944;BME280;13742;49.306;8.636;2023-08-24T04:32:28;100404.48;;;22.80;57.74
25944;BME280;13742;49.306;8.636;2023-08-24T04:33:28;100408.02;;;22.81;57.69
25944;BME280;13742;49.306;8.636;2023-08-24T04:34:28;100407.47;;;22.82;57.70
25944;BME280;13742;49.306;8.636;2023-08-24T04:35:28;100409.16;;;22.79;57.86
25944;BME280;13742;49.306;8.636;2023-08-24T04:36:28;100411.38;;;22.81;57.75
25944;BME280;13742;49.306;8.636;2023-08-24T04:37:28;100412.27;;;22.79;57.96
25944;BME280;13742;49.306;8.636;2023-08-24T04:38:28;100415.64;;;22.77;58.05
25944;BME280;13742;49.306;8.636;2023-08-24T04:39:29;100417.89;;;22.76;57.98
25944;BME280;13742;49.306;8.636;2023-08-24T04:40:28;100421.47;;;22.75;57.92
25944;BME280;13742;49.306;8.636;2023-08-24T04:41:28;100424.51;;;22.72;57.83
25944;BME280;13742;49.306;8.636;2023-08-24T04:42:28;100423.16;;;22.72;57.77
25944;BME280;13742;49.306;8.636;2023-08-24T04:43:28;100423.28;;;22.62;58.09
25944;BME280;13742;49.306;8.636;2023-08-24T04:44:28;100426.41;;;22.65;57.87
25944;BME280;13742;49.306;8.636;2023-08-24T04:45:28;100423.90;;;22.60;58.11
25944;BME280;13742;49.306;8.636;2023-08-24T04:46:28;100424.38;;;22.59;58.34
25944;BME280;13742;49.306;8.636;2023-08-24T04:47:28;100425.77;;;22.55;58.27
25944;BME280;13742;49.306;8.636;2023-08-24T04:48:33;100426.67;;;22.55;58.08
25944;BME280;13742;49.306;8.636;2023-08-24T04:49:31;100427.31;;;22.56;57.79
25944;BME280;13742;49.306;8.636;2023-08-24T04:50:28;100427.14;;;22.56;57.93
25944;BME280;13742;49.306;8.636;2023-08-24T04:51:29;100423.95;;;22.51;58.09
25944;BME280;13742;49.306;8.636;2023-08-24T04:52:28;100422.41;;;22.47;58.19
25944;BME280;13742;49.306;8.636;2023-08-24T04:53:28;100424.33;;;22.49;58.02
25944;BME280;13742;49.306;8.636;2023-08-24T04:54:28;100423.22;;;22.51;57.87
25944;BME280;13742;49.306;8.636;2023-08-24T04:55:28;100422.88;;;22.53;57.87
25944;BME280;13742;49.306;8.636;2023-08-24T04:56:28;100422.63;;;22.54;57.71
25944;BME280;13742;49.306;8.636;2023-08-24T04:57:28;100425.26;;;22.55;57.96
25944;BME280;13742;49.306;8.636;2023-08-24T04:58:28;100428.69;;;22.57;58.00
25944;BME280;13742;49.306;8.636;2023-08-24T04:59:28;100430.64;;;22.58;57.82
25944;BME280;13742;49.306;8.636;2023-08-24T05:00:28;100428.38;;;22.58;57.68
25944;BME280;13742;49.306;8.636;2023-08-24T05:01:28;100429.77;;;22.59;57.79
25944;BME280;13742;49.306;8.636;2023-08-24T05:02:28;100430.06;;;22.61;57.92
25944;BME280;13742;49.306;8.636;2023-08-24T05:03:28;100431.97;;;22.63;57.81
25944;BME280;13742;49.306;8.636;2023-08-24T05:04:28;100435.27;;;22.63;57.57
25944;BME280;13742;49.306;8.636;2023-08-24T05:05:28;100429.93;;;22.59;57.82
25944;BME280;13742;49.306;8.636;2023-08-24T05:06:28;100427.88;;;22.58;57.80
25944;BME280;13742;49.306;8.636;2023-08-24T05:07:28;100430.70;;;22.57;57.62
25944;BME280;13742;49.306;8.636;2023-08-24T05:08:28;100429.73;;;22.58;57.48
25944;BME280;13742;49.306;8.636;2023-08-24T05:09:28;100428.61;;;22.60;57.63
25944;BME280;13742;49.306;8.636;2023-08-24T05:10:31;100432.58;;;22.63;57.54
25944;BME280;13742;49.306;8.636;2023-08-24T05:11:29;100430.22;;;22.63;57.43
25944;BME280;13742;49.306;8.636;2023-08-24T05:12:29;100427.56;;;22.64;57.25
25944;BME280;13742;49.306;8.636;2023-08-24T05:13:28;100423.58;;;22.66;57.54
25944;BME280;13742;49.306;8.636;2023-08-24T05:14:28;100426.03;;;22.69;57.43
25944;BME280;13742;49.306;8.636;2023-08-24T05:15:28;100421.69;;;22.70;57.28
25944;BME280;13742;49.306;8.636;2023-08-24T05:16:28;100423.16;;;22.72;57.13
25944;BME280;13742;49.306;8.636;2023-08-24T05:17:28;100419.83;;;22.72;56.91
25944;BME280;13742;49.306;8.636;2023-08-24T05:18:28;100422.62;;;22.73;56.85
25944;BME280;13742;49.306;8.636;2023-08-24T05:19:28;100420.09;;;22.73;56.84